Time;durP1;ratioP1;P1;durP2;ratioP2;P2;SDS_P1;SDS_P2;PMS_P1;PMS_P2;Temp;Humidity;BMP_temperature;BMP_pressure;BME280_temperature;BME280_humidity;BME280_pressure;Samples;Min_cycle;Max_cycle;Signal;HPM_P1;HPM_P2
2022/09/05 00:02:49;;;;;;;6.93;6.47;;;17.90;99.90;;;;;;6177638;28;20659;-66
2022/09/05 00:06:04;;;;;;;7.10;6.13;;;17.80;99.90;;;;;;6177255;28;20606;-66
2022/09/05 00:09:13;;;;;;;7.03;6.43;;;17.80;99.90;;;;;;6179354;28;20534;-66
2022/09/05 00:12:18;;;;;;;6.67;6.10;;;17.80;99.90;;;;;;6179631;28;20223;-65
2022/09/05 00:15:30;;;;;;;6.53;6.03;;;17.80;99.90;;;;;;6192716;28;20255;-65
2022/09/05 00:18:52;;;;;;;6.60;5.90;;;17.80;99.90;;;;;;6227873;28;20229;-65
2022/09/05 00:22:37;;;;;;;6.63;6.13;;;17.80;99.90;;;;;;6227725;28;20241;-65
2022/09/05 00:26:16;;;;;;;6.80;6.30;;;17.80;99.90;;;;;;6224724;28;20673;-66
2022/09/05 00:29:28;;;;;;;6.67;6.17;;;17.70;99.90;;;;;;6225416;28;20240;-66
2022/09/05 00:33:15;;;;;;;6.63;6.13;;;17.70;99.90;;;;;;6226111;28;20479;-66
2022/09/05 00:36:36;;;;;;;8.10;6.40;;;17.70;99.90;;;;;;6227720;28;20237;-66
2022/09/05 00:39:42;;;;;;;6.20;5.80;;;17.60;99.90;;;;;;6227193;28;20495;-66
2022/09/05 00:43:11;;;;;;;6.97;6.40;;;17.60;99.90;;;;;;6227019;28;20480;-66
2022/09/05 00:46:17;;;;;;;6.30;5.90;;;17.60;99.90;;;;;;6227532;28;20468;-66
2022/09/05 00:49:29;;;;;;;5.93;5.43;;;17.60;99.90;;;;;;6220346;28;20468;-66
2022/09/05 00:52:38;;;;;;;5.70;5.30;;;17.60;99.90;;;;;;6225056;28;20479;-66
2022/09/05 00:55:55;;;;;;;6.60;6.17;;;17.60;99.90;;;;;;6224370;28;20495;-66
2022/09/05 00:59:42;;;;;;;6.53;6.10;;;17.60;99.90;;;;;;6227144;28;20468;-66
2022/09/05 01:03:26;;;;;;;6.73;5.70;;;17.40;99.90;;;;;;6226856;28;20311;-66
2022/09/05 01:06:47;;;;;;;7.13;6.50;;;17.50;99.90;;;;;;6226551;28;20320;-66
2022/09/05 01:10:04;;;;;;;6.53;6.03;;;17.40;99.90;;;;;;6226395;28;20241;-66
2022/09/05 01:13:20;;;;;;;7.07;6.57;;;17.40;99.90;;;;;;6224772;28;20476;-66
2022/09/05 01:16:28;;;;;;;6.30;5.70;;;17.40;99.90;;;;;;6224148;28;20483;-66
2022/09/05 01:19:45;;;;;;;6.53;6.03;;;17.30;99.90;;;;;;6224473;28;20476;-66
2022/09/05 01:23:14;;;;;;;6.33;5.90;;;17.30;99.90;;;;;;6225852;28;20460;-66
2022/09/05 01:26:45;;;;;;;6.80;6.30;;;17.30;99.90;;;;;;6226310;28;20484;-66
2022/09/05 01:29:57;;;;;;;6.57;6.07;;;17.30;99.90;;;;;;6226389;28;20566;-66
2022/09/05 01:33:09;;;;;;;6.30;5.90;;;17.30;99.90;;;;;;6226002;28;20487;-66
2022/09/05 01:36:30;;;;;;;6.73;6.13;;;17.30;99.90;;;;;;6224022;28;20472;-66
2022/09/05 01:39:43;;;;;;;7.23;6.13;;;17.30;99.90;;;;;;6204819;28;20477;-66
2022/09/05 01:43:22;;;;;;;6.47;5.87;;;17.20;99.90;;;;;;6223965;28;20459;-66
2022/09/05 01:46:36;;;;;;;6.20;5.80;;;17.20;99.90;;;;;;6223990;28;20487;-66
2022/09/05 01:49:54;;;;;;;7.00;6.50;;;17.10;99.90;;;;;;6243489;28;20985;-65
2022/09/05 01:53:24;;;;;;;6.33;5.90;;;17.10;99.90;;;;;;6247925;28;20968;-66
2022/09/05 01:56:40;;;;;;;6.97;6.20;;;17.10;99.90;;;;;;6240608;28;20476;-66
2022/09/05 01:59:49;;;;;;;7.73;6.60;;;17.10;99.90;;;;;;6229064;28;20487;-66
2022/09/05 02:03:07;;;;;;;8.80;6.43;;;17.00;99.90;;;;;;6248191;28;20463;-65
2022/09/05 02:06:35;;;;;;;5.73;5.23;;;17.10;99.90;;;;;;6250291;28;20547;-65
2022/09/05 02:09:57;;;;;;;7.10;6.20;;;17.00;99.90;;;;;;6249963;28;20486;-66
2022/09/05 02:13:19;;;;;;;6.77;6.17;;;17.00;99.90;;;;;;6247844;28;20586;-65
2022/09/05 02:16:31;;;;;;;6.67;5.97;;;17.00;99.90;;;;;;6247517;28;20505;-65
2022/09/05 02:19:46;;;;;;;6.60;6.00;;;17.00;99.90;;;;;;6248449;28;20836;-65
2022/09/05 02:22:59;;;;;;;6.67;6.07;;;17.00;99.90;;;;;;6250153;28;20783;-65
2022/09/05 02:26:07;;;;;;;6.43;5.93;;;17.00;99.90;;;;;;6250106;28;20984;-65
2022/09/05 02:29:16;;;;;;;7.10;6.40;;;16.90;99.90;;;;;;6249923;28;20785;-66
2022/09/05 02:32:39;;;;;;;8.93;5.87;;;16.90;99.90;;;;;;6249418;28;20476;-65
2022/09/05 02:35:52;;;;;;;6.07;5.47;;;16.90;99.90;;;;;;6249312;28;20549;-65
2022/09/05 02:39:00;;;;;;;7.93;6.00;;;16.90;99.90;;;;;;6247636;28;20463;-66
2022/09/05 02:42:31;;;;;;;7.10;6.50;;;16.80;99.90;;;;;;6247265;28;20911;-66
2022/09/05 02:46:04;;;;;;;5.90;5.50;;;16.90;99.90;;;;;;6248761;28;20467;-66
2022/09/05 02:49:11;;;;;;;6.87;6.37;;;16.80;99.90;;;;;;6252674;28;20530;-66
2022/09/05 02:52:39;;;;;;;7.10;6.40;;;16.80;99.90;;;;;;6254375;28;20468;-66
2022/09/05 02:56:31;;;;;;;6.30;5.80;;;16.80;99.90;;;;;;6254324;28;20470;-66
2022/09/05 03:00:09;;;;;;;6.30;5.87;;;16.80;99.90;;;;;;6249302;28;20788;-66
2022/09/05 03:03:23;;;;;;;6.20;5.60;;;16.70;99.90;;;;;;6252119;28;20447;-66
2022/09/05 03:06:34;;;;;;;6.33;5.80;;;16.70;99.90;;;;;;6252309;28;20553;-66
2022/09/05 03:10:00;;;;;;;6.50;6.10;;;16.60;99.90;;;;;;6251599;28;21207;-66
2022/09/05 03:13:38;;;;;;;7.33;6.73;;;16.60;99.90;;;;;;6252531;28;20475;-66
2022/09/05 03:17:39;;;;;;;7.20;6.50;;;16.60;99.90;;;;;;6251360;28;20483;-66
2022/09/05 03:21:21;;;;;;;6.13;5.63;;;16.60;99.90;;;;;;6238113;28;20948;-66
2022/09/05 03:25:02;;;;;;;5.97;5.57;;;16.60;99.90;;;;;;6253110;28;20452;-66
2022/09/05 03:28:47;;;;;;;6.20;5.80;;;16.60;99.90;;;;;;6233267;28;20487;-66
2022/09/05 03:32:14;;;;;;;5.97;5.57;;;16.60;99.90;;;;;;6253880;28;20470;-66
2022/09/05 03:36:03;;;;;;;6.50;5.90;;;16.50;99.90;;;;;;6233272;28;20518;-66
2022/09/05 03:39:43;;;;;;;5.73;5.33;;;16.60;99.90;;;;;;6199264;28;20785;-66
2022/09/05 03:43:18;;;;;;;5.73;5.33;;;16.50;99.90;;;;;;6232077;28;20490;-66
2022/09/05 03:46:40;;;;;;;7.03;6.43;;;16.40;99.90;;;;;;6253047;28;20475;-66
2022/09/05 03:50:22;;;;;;;6.73;6.07;;;16.50;99.90;;;;;;6240187;28;20468;-66
2022/09/05 03:54:33;;;;;;;6.80;6.30;;;16.50;99.90;;;;;;6239775;28;20479;-66
2022/09/05 03:58:35;;;;;;;7.00;6.50;;;16.50;99.90;;;;;;6253141;28;20932;-66
2022/09/05 04:02:03;;;;;;;6.87;6.30;;;16.40;99.90;;;;;;6236365;28;20485;-66
2022/09/05 04:05:30;;;;;;;6.30;5.90;;;16.40;99.90;;;;;;6244532;28;20470;-66
2022/09/05 04:09:03;;;;;;;6.57;6.07;;;16.40;99.90;;;;;;6251185;28;20464;-66
2022/09/05 04:12:14;;;;;;;6.80;6.20;;;16.40;99.90;;;;;;6228460;28;20483;-65
2022/09/05 04:15:30;;;;;;;7.30;6.70;;;16.30;99.90;;;;;;6251889;28;20975;-66
2022/09/05 04:18:40;;;;;;;7.90;7.30;;;16.30;99.90;;;;;;6252433;28;20975;-66
2022/09/05 04:21:49;;;;;;;7.23;6.70;;;16.20;99.90;;;;;;6232338;28;20787;-66
2022/09/05 04:25:02;;;;;;;7.10;6.60;;;16.20;99.90;;;;;;6225809;28;20491;-66
2022/09/05 04:28:19;;;;;;;7.13;6.60;;;16.20;99.90;;;;;;6225799;28;20988;-66
2022/09/05 04:31:30;;;;;;;7.50;6.90;;;16.20;99.90;;;;;;6224849;28;20872;-66
2022/09/05 04:34:45;;;;;;;7.97;7.30;;;16.20;99.90;;;;;;6226609;28;20488;-66
2022/09/05 04:37:58;;;;;;;6.50;6.00;;;16.20;99.90;;;;;;6227326;28;20871;-66
2022/09/05 04:41:03;;;;;;;6.63;6.13;;;16.30;99.90;;;;;;6227632;28;20468;-65
2022/09/05 04:44:10;;;;;;;15.40;8.93;;;16.20;99.90;;;;;;6227362;28;20465;-65
2022/09/05 04:47:19;;;;;;;7.60;6.20;;;16.20;99.90;;;;;;6227445;28;20476;-65
2022/09/05 04:50:25;;;;;;;6.93;6.33;;;16.20;99.90;;;;;;6225275;28;20476;-66
2022/09/05 04:54:15;;;;;;;7.07;6.43;;;16.30;99.90;;;;;;6224990;28;20483;-67
2022/09/05 04:57:24;;;;;;;7.53;6.70;;;16.30;99.90;;;;;;6209878;28;20476;-67
2022/09/05 05:00:34;;;;;;;6.57;6.17;;;16.30;99.90;;;;;;6227036;28;20463;-67
2022/09/05 05:04:06;;;;;;;7.13;6.60;;;16.40;99.90;;;;;;6219766;28;20465;-67
2022/09/05 05:07:40;;;;;;;7.20;6.60;;;16.40;99.90;;;;;;6193808;28;20481;-65
2022/09/05 05:10:48;;;;;;;7.10;6.60;;;16.50;99.90;;;;;;6201823;28;20475;-65
2022/09/05 05:14:17;;;;;;;7.70;6.90;;;16.60;99.90;;;;;;6200553;28;20488;-65
2022/09/05 05:17:51;;;;;;;7.00;6.40;;;16.60;99.90;;;;;;6199889;28;20480;-66
2022/09/05 05:21:17;;;;;;;8.30;6.07;;;16.70;99.90;;;;;;6199487;28;20460;-66
2022/09/05 05:24:25;;;;;;;6.63;6.13;;;16.80;99.90;;;;;;6201675;28;20422;-65
2022/09/05 05:27:33;;;;;;;6.63;6.13;;;16.80;99.90;;;;;;6202361;28;20515;-65
2022/09/05 05:30:37;;;;;;;7.93;7.30;;;16.90;99.90;;;;;;6202193;28;20473;-65
2022/09/05 05:33:40;;;;;;;6.77;6.27;;;16.90;99.90;;;;;;6202382;28;20487;-65
2022/09/05 05:36:52;;;;;;;8.90;6.73;;;17.00;99.90;;;;;;6201397;28;20474;-65
2022/09/05 05:40:09;;;;;;;7.57;6.87;;;17.10;99.90;;;;;;6199468;28;20469;-66
2022/09/05 05:43:14;;;;;;;7.50;6.90;;;17.20;99.90;;;;;;6201183;28;21125;-67
2022/09/05 05:46:29;;;;;;;7.60;6.73;;;17.20;99.90;;;;;;6221144;28;20476;-67
2022/09/05 05:49:48;;;;;;;7.07;6.47;;;17.20;99.90;;;;;;6225432;28;20468;-66
2022/09/05 05:53:25;;;;;;;7.13;6.40;;;17.30;99.90;;;;;;6210869;28;20473;-66
2022/09/05 05:57:12;;;;;;;7.47;6.87;;;17.50;99.90;;;;;;6201003;28;20481;-66
2022/09/05 06:00:19;;;;;;;8.17;7.37;;;17.50;99.90;;;;;;6206848;28;20568;-64
2022/09/05 06:04:02;;;;;;;6.10;5.70;;;17.60;99.90;;;;;;6223396;28;20924;-65
2022/09/05 06:07:09;;;;;;;6.90;6.30;;;17.80;99.90;;;;;;6207491;28;20483;-65
2022/09/05 06:10:40;;;;;;;7.33;5.63;;;17.90;99.90;;;;;;6214059;28;20936;-65
2022/09/05 06:14:49;;;;;;;7.77;7.10;;;18.00;99.90;;;;;;6210914;28;20956;-66
2022/09/05 06:18:52;;;;;;;6.53;6.03;;;18.30;99.90;;;;;;6213710;28;20692;-66
2022/09/05 06:22:41;;;;;;;6.97;6.37;;;18.70;99.90;;;;;;6211033;28;20684;-66
2022/09/05 06:26:28;;;;;;;6.87;6.27;;;19.20;99.90;;;;;;6141079;28;20376;-66
2022/09/05 06:29:38;;;;;;;6.70;6.00;;;21.10;99.90;;;;;;6143173;28;20223;-66
2022/09/05 06:33:02;;;;;;;6.13;5.63;;;23.10;99.90;;;;;;6136132;28;20260;-66
2022/09/05 06:36:18;;;;;;;6.47;5.87;;;24.80;99.90;;;;;;6203969;28;20233;-66
2022/09/05 06:39:43;;;;;;;8.43;5.23;;;26.20;97.60;;;;;;6205968;28;20217;-67
2022/09/05 06:43:12;;;;;;;5.90;5.40;;;27.40;93.80;;;;;;6205825;28;20229;-67
2022/09/05 06:46:26;;;;;;;6.20;4.77;;;28.60;90.60;;;;;;6228087;28;20621;-67
2022/09/05 06:50:05;;;;;;;5.50;5.07;;;29.80;83.40;;;;;;6229636;28;20259;-67
2022/09/05 06:53:55;;;;;;;5.70;5.20;;;30.80;76.30;;;;;;6229642;28;20237;-67
2022/09/05 06:57:30;;;;;;;5.05;4.65;;;31.60;72.80;;;;;;6229371;28;20232;-67
2022/09/05 07:00:44;;;;;;;5.30;5.00;;;32.50;67.00;;;;;;6229642;28;20661;-67
2022/09/05 07:04:11;;;;;;;5.40;4.90;;;33.50;61.30;;;;;;6229319;28;20291;-67
2022/09/05 07:07:43;;;;;;;4.78;4.45;;;34.30;58.30;;;;;;6229360;28;20233;-67
2022/09/05 07:10:57;;;;;;;5.50;5.00;;;35.20;54.80;;;;;;6229666;28;20247;-67
2022/09/05 07:14:22;;;;;;;5.13;4.82;;;35.70;52.10;;;;;;6214061;28;20743;-67
2022/09/05 07:17:36;;;;;;;4.80;4.50;;;36.10;50.20;;;;;;6204682;28;20248;-67
2022/09/05 07:21:04;;;;;;;5.78;5.20;;;36.20;49.60;;;;;;6214851;28;20225;-67
2022/09/05 07:24:26;;;;;;;4.82;4.43;;;37.10;47.80;;;;;;6217649;28;20335;-67
2022/09/05 07:27:53;;;;;;;6.20;4.82;;;38.10;46.00;;;;;;6216073;28;20227;-67
2022/09/05 07:31:21;;;;;;;4.82;4.43;;;38.50;44.50;;;;;;6227320;28;20228;-67
2022/09/05 07:34:40;;;;;;;5.97;4.53;;;39.60;43.20;;;;;;6228578;28;20232;-67
2022/09/05 07:37:45;;;;;;;4.40;4.10;;;40.40;41.40;;;;;;6228797;28;20228;-67
2022/09/05 07:40:56;;;;;;;4.38;4.07;;;41.10;39.20;;;;;;6228546;28;20554;-67
2022/09/05 07:44:05;;;;;;;4.13;3.92;;;41.30;38.00;;;;;;6221675;28;20232;-67
2022/09/05 07:47:21;;;;;;;4.43;4.18;;;41.50;37.80;;;;;;6208022;28;20225;-68
2022/09/05 07:50:25;;;;;;;4.47;4.07;;;42.20;36.70;;;;;;6214045;28;20235;-68
2022/09/05 07:53:50;;;;;;;4.22;3.92;;;42.90;35.10;;;;;;6219031;28;20243;-67
2022/09/05 07:57:20;;;;;;;3.80;3.50;;;43.20;34.30;;;;;;6223801;28;20319;-67
2022/09/05 08:00:35;;;;;;;4.43;4.13;;;43.10;34.00;;;;;;6215535;28;20232;-67
2022/09/05 08:03:40;;;;;;;4.03;3.83;;;42.50;33.80;;;;;;6216663;28;20634;-67
2022/09/05 08:06:45;;;;;;;4.55;4.25;;;42.90;34.30;;;;;;6205836;28;20233;-67
2022/09/05 08:10:12;;;;;;;4.13;3.85;;;44.00;32.90;;;;;;6203766;28;20233;-66
2022/09/05 08:13:24;;;;;;;4.95;4.55;;;44.50;32.00;;;;;;6203591;28;20304;-68
2022/09/05 08:16:31;;;;;;;3.97;3.75;;;43.40;32.50;;;;;;6203171;28;20663;-66
2022/09/05 08:19:53;;;;;;;4.78;4.15;;;43.50;33.70;;;;;;6203174;28;20600;-66
2022/09/05 08:23:07;;;;;;;4.32;4.03;;;44.00;32.10;;;;;;6213348;28;20224;-66
2022/09/05 08:26:13;;;;;;;4.90;4.55;;;43.20;32.70;;;;;;6251877;28;20236;-66
2022/09/05 08:29:29;;;;;;;4.80;4.10;;;43.70;32.10;;;;;;6252300;28;20242;-66
2022/09/05 08:32:40;;;;;;;5.05;4.45;;;43.30;32.70;;;;;;6251839;28;20228;-66
2022/09/05 08:35:48;;;;;;;4.40;4.10;;;42.50;33.20;;;;;;6230782;28;20232;-66
2022/09/05 08:39:03;;;;;;;4.90;4.50;;;42.20;34.10;;;;;;6250475;28;20313;-66
2022/09/05 08:42:19;;;;;;;4.32;4.13;;;44.10;32.70;;;;;;6249849;28;20432;-66
2022/09/05 08:45:34;;;;;;;4.70;4.40;;;44.80;30.90;;;;;;6220748;28;20225;-66
2022/09/05 08:49:33;;;;;;;4.72;4.53;;;45.50;30.30;;;;;;6225481;28;20235;-66
2022/09/05 08:52:54;;;;;;;4.68;4.28;;;45.60;30.30;;;;;;6237648;28;20235;-66
2022/09/05 08:56:05;;;;;;;5.18;4.78;;;45.60;30.00;;;;;;6250455;28;20235;-66
2022/09/05 08:59:25;;;;;;;5.00;4.70;;;46.20;29.10;;;;;;6226892;28;20549;-66
2022/09/05 09:03:00;;;;;;;5.03;4.72;;;45.20;29.20;;;;;;6226769;28;20243;-66
2022/09/05 09:06:34;;;;;;;5.72;5.32;;;41.00;33.70;;;;;;6226545;28;20239;-66
2022/09/05 09:09:51;;;;;;;5.13;4.78;;;37.10;38.60;;;;;;6226712;28;20235;-66
2022/09/05 09:13:12;;;;;;;6.15;5.75;;;35.60;42.30;;;;;;6226821;28;20227;-66
2022/09/05 09:16:28;;;;;;;5.85;5.47;;;36.80;40.10;;;;;;6226026;28;20243;-65
2022/09/05 09:19:48;;;;;;;7.93;5.55;;;36.00;40.80;;;;;;6210255;28;20229;-67
2022/09/05 09:22:57;;;;;;;6.68;6.18;;;34.60;43.50;;;;;;6193227;28;20237;-67
2022/09/05 09:26:12;;;;;;;6.65;6.15;;;33.40;46.20;;;;;;6223515;28;20677;-65
2022/09/05 09:29:18;;;;;;;6.70;6.30;;;32.30;48.60;;;;;;6226318;28;20259;-66
2022/09/05 09:32:23;;;;;;;6.53;6.13;;;31.40;50.50;;;;;;6226130;28;20247;-65
2022/09/05 09:35:40;;;;;;;6.57;6.07;;;31.30;51.50;;;;;;6225869;28;20678;-65
2022/09/05 09:39:02;;;;;;;7.85;7.20;;;30.50;53.00;;;;;;6225774;28;20331;-65
2022/09/05 09:42:34;;;;;;;6.60;6.10;;;30.30;54.20;;;;;;6225297;28;20228;-65
2022/09/05 09:45:53;;;;;;;6.47;6.07;;;32.00;52.70;;;;;;6225375;28;20239;-66
2022/09/05 09:49:15;;;;;;;5.57;5.18;;;34.20;48.40;;;;;;6225579;28;20588;-65
2022/09/05 09:53:13;;;;;;;5.97;5.57;;;35.80;44.40;;;;;;6225661;28;20529;-65
2022/09/05 09:56:57;;;;;;;6.28;5.88;;;35.40;45.00;;;;;;6135218;28;20228;-66
2022/09/05 10:00:14;;;;;;;6.65;6.15;;;35.80;43.80;;;;;;6189892;28;20237;-66
2022/09/05 10:03:36;;;;;;;6.90;6.22;;;35.20;44.40;;;;;;6205888;28;20648;-65
2022/09/05 10:07:21;;;;;;;6.47;5.95;;;34.30;45.90;;;;;;6252439;28;20243;-64
2022/09/05 10:11:10;;;;;;;6.75;6.20;;;33.40;48.50;;;;;;6236196;28;20239;-65
2022/09/05 10:15:00;;;;;;;7.25;6.75;;;33.20;48.10;;;;;;6244960;28;20691;-65
2022/09/05 10:18:49;;;;;;;6.78;6.38;;;32.40;49.30;;;;;;6217810;28;20226;-66
2022/09/05 10:22:09;;;;;;;6.00;5.60;;;32.00;50.90;;;;;;6200928;28;20683;-64
2022/09/05 10:26:05;;;;;;;7.50;6.38;;;32.20;50.40;;;;;;6197138;28;20236;-65
2022/09/05 10:29:10;;;;;;;6.10;5.70;;;32.20;50.20;;;;;;6201529;28;20236;-65
2022/09/05 10:32:42;;;;;;;7.70;7.20;;;32.00;51.00;;;;;;6201750;28;20550;-67
2022/09/05 10:36:22;;;;;;;6.57;6.07;;;31.20;52.80;;;;;;6201199;28;20233;-66
2022/09/05 10:39:29;;;;;;;7.25;6.75;;;31.30;52.50;;;;;;6201425;28;20214;-66
2022/09/05 10:42:38;;;;;;;6.57;6.07;;;31.00;52.80;;;;;;6200665;28;20680;-66
2022/09/05 10:46:14;;;;;;;6.60;6.10;;;30.70;53.30;;;;;;6207432;28;20243;-66
2022/09/05 10:49:43;;;;;;;7.10;6.68;;;30.50;54.10;;;;;;6225071;28;20283;-66
2022/09/05 10:53:09;;;;;;;6.87;6.37;;;30.30;54.50;;;;;;6238310;28;20242;-66
2022/09/05 10:56:16;;;;;;;6.60;5.87;;;29.60;56.20;;;;;;6247144;28;20236;-66
2022/09/05 10:59:29;;;;;;;7.57;6.97;;;29.00;57.40;;;;;;6225228;28;20234;-65
2022/09/05 11:02:57;;;;;;;6.30;5.90;;;28.80;57.90;;;;;;6225141;28;20239;-67
2022/09/05 11:06:05;;;;;;;7.13;6.50;;;28.70;58.40;;;;;;6224673;28;20232;-65
2022/09/05 11:09:19;;;;;;;7.67;7.17;;;28.80;58.80;;;;;;6226409;28;20531;-65
2022/09/05 11:12:33;;;;;;;8.33;7.63;;;28.90;59.00;;;;;;6229507;28;20196;-65
2022/09/05 11:15:56;;;;;;;8.00;7.17;;;28.00;61.50;;;;;;6229328;28;20228;-66
2022/09/05 11:19:18;;;;;;;6.80;6.30;;;27.50;63.40;;;;;;6216066;28;20563;-65
2022/09/05 11:22:27;;;;;;;8.73;8.13;;;27.60;64.00;;;;;;6204978;28;20225;-66
2022/09/05 11:25:35;;;;;;;7.67;7.10;;;28.00;63.80;;;;;;6204193;28;20244;-66
2022/09/05 11:28:51;;;;;;;8.00;7.20;;;28.20;62.80;;;;;;6204745;28;20239;-66
2022/09/05 11:32:28;;;;;;;8.17;7.57;;;28.30;62.80;;;;;;6204558;28;20340;-66
2022/09/05 11:35:55;;;;;;;7.70;7.10;;;28.00;63.40;;;;;;6203968;28;20233;-67
2022/09/05 11:39:50;;;;;;;7.67;7.13;;;28.10;63.70;;;;;;6203491;28;20670;-67
2022/09/05 11:43:58;;;;;;;7.60;7.10;;;28.10;63.70;;;;;;6215349;28;20234;-67
2022/09/05 11:47:48;;;;;;;8.57;7.87;;;28.10;64.10;;;;;;6250212;28;20648;-66
2022/09/05 11:51:11;;;;;;;8.43;7.63;;;28.10;64.20;;;;;;6222640;28;20555;-67
2022/09/05 11:54:55;;;;;;;7.97;7.47;;;28.10;64.80;;;;;;6252811;28;20239;-66
2022/09/05 11:58:16;;;;;;;9.20;8.43;;;28.40;64.50;;;;;;6212033;28;20224;-67
2022/09/05 12:01:50;;;;;;;7.97;7.37;;;28.30;64.60;;;;;;6227842;28;20552;-66
2022/09/05 12:05:10;;;;;;;8.13;7.57;;;28.40;64.90;;;;;;6227665;28;20264;-65
2022/09/05 12:08:38;;;;;;;8.03;7.53;;;28.80;63.40;;;;;;6227633;28;20225;-65
2022/09/05 12:11:53;;;;;;;8.40;7.80;;;29.00;63.30;;;;;;6227711;28;20582;-65
2022/09/05 12:15:10;;;;;;;8.37;7.87;;;29.40;62.90;;;;;;6227599;28;20324;-65
2022/09/05 12:18:20;;;;;;;9.77;9.07;;;29.00;62.50;;;;;;6222627;28;20221;-65
2022/09/05 12:21:35;;;;;;;8.97;8.40;;;28.40;64.20;;;;;;6202184;28;20190;-65
2022/09/05 12:24:54;;;;;;;9.23;8.33;;;27.80;66.70;;;;;;6203297;28;20264;-65
2022/09/05 12:28:27;;;;;;;9.10;8.30;;;27.70;66.50;;;;;;6203029;28;20225;-65
2022/09/05 12:31:57;;;;;;;8.37;7.87;;;27.80;66.50;;;;;;6202878;28;20543;-65
2022/09/05 12:35:35;;;;;;;9.20;8.50;;;28.00;66.20;;;;;;6193911;28;20237;-65
2022/09/05 12:39:04;;;;;;;8.93;8.23;;;28.20;65.80;;;;;;6202996;28;20244;-65
2022/09/05 12:42:33;;;;;;;9.17;8.57;;;28.00;66.70;;;;;;6236314;28;20223;-65
2022/09/05 12:45:59;;;;;;;9.37;8.60;;;28.20;65.70;;;;;;6250266;28;20227;-64
2022/09/05 12:49:07;;;;;;;9.07;8.30;;;28.00;66.20;;;;;;6243908;28;20710;-65
2022/09/05 12:52:15;;;;;;;9.50;8.83;;;27.60;67.10;;;;;;6232699;28;20224;-65
2022/09/05 12:55:25;;;;;;;9.57;8.93;;;27.30;68.70;;;;;;6246931;28;20249;-65
2022/09/05 12:58:30;;;;;;;10.50;9.50;;;27.30;69.50;;;;;;6238167;28;20239;-65
2022/09/05 13:02:02;;;;;;;8.27;7.77;;;27.20;70.50;;;;;;6235113;28;20224;-64
2022/09/05 13:05:48;;;;;;;10.73;9.70;;;27.30;70.50;;;;;;6250842;28;20235;-66
2022/09/05 13:08:56;;;;;;;9.70;9.10;;;27.10;70.40;;;;;;6216864;28;20304;-66
2022/09/05 13:12:10;;;;;;;9.27;8.67;;;26.80;72.30;;;;;;6201480;28;20245;-66
2022/09/05 13:15:37;;;;;;;8.90;8.20;;;26.80;71.20;;;;;;6201490;28;20239;-66
2022/09/05 13:18:42;;;;;;;9.63;8.93;;;26.70;71.70;;;;;;6200970;28;20226;-64
2022/09/05 13:21:51;;;;;;;10.27;9.57;;;26.70;72.30;;;;;;6210848;28;20219;-66
2022/09/05 13:25:06;;;;;;;9.30;8.70;;;26.80;72.80;;;;;;6248800;28;20682;-66
2022/09/05 13:28:14;;;;;;;9.13;8.33;;;26.80;72.00;;;;;;6246956;28;20224;-66
2022/09/05 13:32:08;;;;;;;8.53;7.93;;;27.00;71.30;;;;;;6249819;28;20235;-66
2022/09/05 13:35:35;;;;;;;9.80;9.20;;;27.20;71.10;;;;;;6193565;28;20240;-66
2022/09/05 13:39:03;;;;;;;10.10;9.40;;;27.40;72.40;;;;;;6244743;28;20235;-66
2022/09/05 13:42:16;;;;;;;8.97;8.30;;;27.70;71.40;;;;;;6250465;28;20243;-66
2022/09/05 13:45:21;;;;;;;8.80;8.13;;;27.90;69.80;;;;;;6249549;28;20226;-66
2022/09/05 13:48:35;;;;;;;8.00;7.50;;;28.30;68.40;;;;;;6249722;28;20191;-66
2022/09/05 13:52:11;;;;;;;8.43;7.83;;;28.60;67.00;;;;;;6233303;28;20228;-66
2022/09/05 13:55:22;;;;;;;8.47;7.87;;;28.50;67.00;;;;;;6225786;28;20243;-66
2022/09/05 13:58:38;;;;;;;8.70;8.00;;;28.40;67.30;;;;;;6225444;28;20236;-66
2022/09/05 14:02:06;;;;;;;9.03;8.40;;;28.40;66.70;;;;;;6225713;28;20591;-66
2022/09/05 14:05:36;;;;;;;8.10;7.60;;;27.70;68.20;;;;;;6225569;28;20236;-66
2022/09/05 14:08:53;;;;;;;8.17;7.50;;;27.70;69.10;;;;;;6225154;28;20282;-66
2022/09/05 14:12:28;;;;;;;7.37;6.77;;;27.80;68.50;;;;;;6224735;28;20243;-66
2022/09/05 14:15:41;;;;;;;7.90;7.40;;;27.90;68.40;;;;;;6225393;28;20236;-66
2022/09/05 14:22:08;;;;;;;7.70;7.20;;;28.10;68.40;;;;;;6225216;28;20228;-66
2022/09/05 14:25:25;;;;;;;7.57;7.07;;;28.30;67.70;;;;;;6226759;28;20657;-66
2022/09/05 14:28:34;;;;;;;7.60;7.10;;;27.90;68.30;;;;;;6249325;28;20224;-66
2022/09/05 14:31:51;;;;;;;8.23;7.73;;;27.60;69.30;;;;;;6249026;28;20579;-65
2022/09/05 14:35:26;;;;;;;8.47;7.70;;;27.10;71.30;;;;;;6221119;28;20279;-66
2022/09/05 14:39:07;;;;;;;7.90;7.20;;;26.80;72.30;;;;;;6227824;28;20235;-65
2022/09/05 14:42:27;;;;;;;7.97;7.47;;;26.70;72.90;;;;;;6231647;28;20251;-66
2022/09/05 14:45:50;;;;;;;8.67;7.90;;;26.80;73.00;;;;;;6249549;28;20652;-65
2022/09/05 14:49:25;;;;;;;8.30;7.80;;;26.80;73.40;;;;;;6254928;28;20232;-66
2022/09/05 14:52:32;;;;;;;8.70;8.10;;;26.90;73.50;;;;;;6235379;28;20225;-66
2022/09/05 14:55:54;;;;;;;8.53;7.73;;;26.90;74.00;;;;;;6254140;28;20236;-66
2022/09/05 14:59:29;;;;;;;8.83;8.30;;;26.80;74.70;;;;;;6232905;28;20229;-65
2022/09/05 15:02:56;;;;;;;8.00;7.40;;;26.80;74.70;;;;;;6229239;28;20304;-66
2022/09/05 15:06:14;;;;;;;9.30;8.70;;;26.80;74.60;;;;;;6228935;28;20318;-65
2022/09/05 15:09:19;;;;;;;8.53;7.93;;;26.90;74.70;;;;;;6212248;28;20217;-66
2022/09/05 15:12:46;;;;;;;9.27;8.60;;;26.70;75.70;;;;;;6229055;28;20244;-66
2022/09/05 15:16:05;;;;;;;8.53;7.97;;;26.70;75.70;;;;;;6228886;28;20596;-65
2022/09/05 15:19:10;;;;;;;9.20;8.47;;;26.50;76.60;;;;;;6239541;28;20228;-65
2022/09/05 15:22:23;;;;;;;10.70;9.90;;;26.50;77.30;;;;;;6252965;28;20220;-65
2022/09/05 15:25:31;;;;;;;10.20;9.43;;;26.30;77.70;;;;;;6247688;28;20668;-65
2022/09/05 15:28:37;;;;;;;11.00;10.20;;;26.30;78.70;;;;;;6252481;28;20228;-66
2022/09/05 15:31:41;;;;;;;11.43;10.60;;;26.40;79.20;;;;;;6245685;28;20239;-67
2022/09/05 15:34:44;;;;;;;10.03;9.23;;;26.40;79.40;;;;;;6228437;28;20307;-68
2022/09/05 15:37:48;;;;;;;10.47;9.67;;;26.30;79.70;;;;;;6228672;28;20220;-68
2022/09/05 15:41:25;;;;;;;10.67;10.00;;;26.40;80.10;;;;;;6227688;28;20282;-66
2022/09/05 15:44:30;;;;;;;10.93;10.10;;;26.40;80.20;;;;;;6227554;28;20246;-64
2022/09/05 15:48:00;;;;;;;10.93;10.13;;;26.30;80.80;;;;;;6219448;28;20233;-63
2022/09/05 15:51:11;;;;;;;12.13;11.23;;;26.30;80.80;;;;;;6237838;28;20238;-64
2022/09/05 15:54:22;;;;;;;11.37;10.60;;;26.00;82.30;;;;;;6248122;28;20220;-64
2022/09/05 15:57:49;;;;;;;11.40;10.60;;;26.00;83.00;;;;;;6241528;28;20229;-64
2022/09/05 16:00:54;;;;;;;12.60;11.70;;;26.00;83.80;;;;;;6229708;28;20234;-64
2022/09/05 16:03:58;;;;;;;12.80;11.90;;;25.90;84.50;;;;;;6251169;28;20269;-63
2022/09/05 16:07:24;;;;;;;12.33;11.43;;;25.90;84.70;;;;;;6242684;28;20229;-62
2022/09/05 16:10:47;;;;;;;12.10;11.27;;;25.90;85.00;;;;;;6241191;28;20232;-63
2022/09/05 16:14:22;;;;;;;12.13;11.40;;;25.90;85.60;;;;;;6252157;28;20231;-64
2022/09/05 16:17:30;;;;;;;13.47;12.50;;;25.60;87.30;;;;;;6230245;28;20303;-64
2022/09/05 16:20:56;;;;;;;13.00;11.90;;;25.40;88.60;;;;;;6248022;28;20568;-64
2022/09/05 16:24:23;;;;;;;13.50;12.47;;;25.40;89.50;;;;;;6246010;28;20240;-64
2022/09/05 16:27:56;;;;;;;13.13;12.23;;;25.30;90.10;;;;;;6248638;28;20223;-64
2022/09/05 16:31:04;;;;;;;13.53;12.63;;;25.30;90.30;;;;;;6250033;28;20232;-64
2022/09/05 16:34:21;;;;;;;13.17;12.27;;;25.30;90.60;;;;;;6244576;28;20220;-64
2022/09/05 16:37:30;;;;;;;13.77;12.60;;;25.30;90.90;;;;;;6250731;28;20220;-64
2022/09/05 16:40:37;;;;;;;13.33;12.33;;;25.30;91.30;;;;;;6250523;28;20224;-64
2022/09/05 16:43:46;;;;;;;13.80;12.90;;;25.30;91.30;;;;;;6250129;28;20235;-64
2022/09/05 16:47:09;;;;;;;14.40;13.33;;;25.30;91.30;;;;;;6246769;28;20239;-64
2022/09/05 16:50:20;;;;;;;13.53;12.53;;;25.20;91.60;;;;;;6250792;28;20227;-64
2022/09/05 16:53:32;;;;;;;14.70;13.70;;;25.20;92.00;;;;;;6224346;28;20697;-64
2022/09/05 16:56:39;;;;;;;13.23;12.33;;;25.00;92.30;;;;;;6226860;28;20232;-64
2022/09/05 16:59:45;;;;;;;14.03;13.03;;;25.00;92.60;;;;;;6226429;28;20229;-64
2022/09/05 17:02:57;;;;;;;14.83;13.83;;;24.90;93.00;;;;;;6226598;28;20229;-64
2022/09/05 17:06:13;;;;;;;15.10;14.10;;;24.90;93.30;;;;;;6225953;28;20232;-64
2022/09/05 17:09:29;;;;;;;14.60;13.50;;;24.90;93.70;;;;;;6226367;28;20379;-64
2022/09/05 17:12:34;;;;;;;16.50;15.20;;;24.80;94.00;;;;;;6226369;28;20231;-63
2022/09/05 17:15:41;;;;;;;15.10;14.00;;;24.80;94.30;;;;;;6226468;28;20233;-63
2022/09/05 17:18:58;;;;;;;16.80;15.20;;;24.70;94.60;;;;;;6226663;28;20224;-64
2022/09/05 17:22:11;;;;;;;14.87;13.77;;;24.70;95.00;;;;;;6226011;28;20225;-63
2022/09/05 17:25:40;;;;;;;13.80;12.90;;;24.60;95.30;;;;;;6226290;28;20229;-63
2022/09/05 17:29:39;;;;;;;14.87;13.60;;;24.60;95.80;;;;;;6225748;28;20692;-63